Time;durP1;ratioP1;P1;durP2;ratioP2;P2;SDS_P1;SDS_P2;PMS_P1;PMS_P2;Temp;Humidity;BMP_temperature;BMP_pressure;BME280_temperature;BME280_humidity;BME280_pressure;Samples;Min_cycle;Max_cycle;Signal;HPM_P1;HPM_P2
2022/05/27 00:00:18;;;;;;;;;;;;;;;;;;5080087;28;1309;-73
2022/05/27 00:02:45;;;;;;;;;;;;;;;;;;5082812;28;1188;-73
2022/05/27 00:05:12;;;;;;;;;;;;;;;;;;5045093;28;1945;-73
2022/05/27 00:07:37;;;;;;;;;;;;;;;;;;5040704;28;1269;-73
2022/05/27 00:10:03;;;;;;;;;;;;;;;;;;5058227;28;1089;-73
2022/05/27 00:12:36;;;;;;;;;;;;;;;;;;5059929;28;1255;-73
2022/05/27 00:15:01;;;;;;;;;;;;;;;;;;5061594;28;1121;-73
2022/05/27 00:17:27;;;;;;;;;;;;;;;;;;5062417;28;1303;-73
2022/05/27 00:19:52;;;;;;;;;;;;;;;;;;5084550;28;1373;-73
2022/05/27 00:22:18;;;;;;;;;;;;;;;;;;5084512;28;1210;-73
2022/05/27 00:24:43;;;;;;;;;;;;;;;;;;5082612;28;1902;-73
2022/05/27 00:27:08;;;;;;;;;;;;;;;;;;5082969;28;1199;-73
2022/05/27 00:29:35;;;;;;;;;;;;;;;;;;5082469;28;1107;-73
2022/05/27 00:32:00;;;;;;;;;;;;;;;;;;5085982;28;1345;-73
2022/05/27 00:34:26;;;;;;;;;;;;;;;;;;5083953;28;1368;-73
2022/05/27 00:36:51;;;;;;;;;;;;;;;;;;5084712;28;1141;-73
2022/05/27 00:39:17;;;;;;;;;;;;;;;;;;5083866;28;1160;-73
2022/05/27 00:41:43;;;;;;;;;;;;;;;;;;5082480;28;1661;-73
2022/05/27 00:44:08;;;;;;;;;;;;;;;;;;5082506;28;1892;-73
2022/05/27 00:46:34;;;;;;;;;;;;;;;;;;5065984;28;1282;-73
2022/05/27 00:49:12;;;;;;;;;;;;;;;;;;5085466;28;1250;-73
2022/05/27 00:51:53;;;;;;;;;;;;;;;;;;5085133;28;1353;-73
2022/05/27 00:54:21;;;;;;;;;;;;;;;;;;5072322;28;1286;-73
2022/05/27 00:56:51;;;;;;;;;;;;;;;;;;5081470;28;1358;-73
2022/05/27 00:59:22;;;;;;;;;;;;;;;;;;5083297;28;1203;-73
2022/05/27 01:01:48;;;;;;;;;;;;;;;;;;5083730;28;1271;-73
2022/05/27 01:04:14;;;;;;;;;;;;;;;;;;5065722;28;1933;-73
2022/05/27 01:06:39;;;;;;;;;;;;;;;;;;5080470;28;1141;-73
2022/05/27 01:09:04;;;;;;;;;;;;;;;;;;5084689;28;1199;-74
2022/05/27 01:11:42;;;;;;;;;;;;;;;;;;5080276;28;1317;-73
2022/05/27 01:14:26;;;;;;;;;;;;;;;;;;5080214;28;1218;-73
2022/05/27 01:16:54;;;;;;;;;;;;;;;;;;5085729;28;1136;-72
2022/05/27 01:22:15;;;;;;;;;;;;;;;;;;5087102;28;1103;-74
2022/05/27 01:24:56;;;;;;;;;;;;;;;;;;5082998;28;1889;-73
2022/05/27 01:27:40;;;;;;;;;;;;;;;;;;5082084;28;1219;-73
2022/05/27 01:30:24;;;;;;;;;;;;;;;;;;5081820;28;1313;-73
2022/05/27 01:32:58;;;;;;;;;;;;;;;;;;5084604;28;1483;-73
2022/05/27 01:35:35;;;;;;;;;;;;;;;;;;5065198;28;1162;-73
2022/05/27 01:38:00;;;;;;;;;;;;;;;;;;5063741;28;1097;-73
2022/05/27 01:40:28;;;;;;;;;;;;;;;;;;5057705;28;1343;-73
2022/05/27 01:42:54;;;;;;;;;;;;;;;;;;5060625;28;1338;-73
2022/05/27 01:45:24;;;;;;;;;;;;;;;;;;5062897;28;1909;-74
2022/05/27 01:48:01;;;;;;;;;;;;;;;;;;5062504;28;1140;-73
2022/05/27 01:50:33;;;;;;;;;;;;;;;;;;5060225;28;1136;-73
2022/05/27 01:53:18;;;;;;;;;;;;;;;;;;5063827;28;1136;-73
2022/05/27 01:55:49;;;;;;;;;;;;;;;;;;5065237;28;1208;-73
2022/05/27 01:58:18;;;;;;;;;;;;;;;;;;5061456;28;1356;-73
2022/05/27 02:00:44;;;;;;;;;;;;;;;;;;5061543;28;1021;-73
2022/05/27 02:03:16;;;;;;;;;;;;;;;;;;5081490;28;1171;-74
2022/05/27 02:06:01;;;;;;;;;;;;;;;;;;5061025;28;1956;-74
2022/05/27 02:08:53;;;;;;;;;;;;;;;;;;5078333;28;1223;-73
2022/05/27 02:11:19;;;;;;;;;;;;;;;;;;5080661;28;1168;-73
2022/05/27 02:13:51;;;;;;;;;;;;;;;;;;5079097;28;1174;-73
2022/05/27 02:16:43;;;;;;;;;;;;;;;;;;5081829;28;1238;-73
2022/05/27 02:19:12;;;;;;;;;;;;;;;;;;5081905;28;1450;-72
2022/05/27 02:21:41;;;;;;;;;;;;;;;;;;5080236;28;1299;-73
2022/05/27 02:24:06;;;;;;;;;;;;;;;;;;5082369;28;1200;-73
2022/05/27 02:26:34;;;;;;;;;;;;;;;;;;5080011;28;1873;-71
2022/05/27 02:29:03;;;;;;;;;;;;;;;;;;5061259;28;1136;-73
2022/05/27 02:31:30;;;;;;;;;;;;;;;;;;5079546;28;1143;-74
2022/05/27 02:36:56;;;;;;;;;;;;;;;;;;5071221;28;973;-72
2022/05/27 02:39:22;;;;;;;;;;;;;;;;;;5061632;28;1216;-72
2022/05/27 02:41:47;;;;;;;;;;;;;;;;;;5058462;28;1318;-73
2022/05/27 02:44:16;;;;;;;;;;;;;;;;;;5061424;28;1910;-72
2022/05/27 02:46:48;;;;;;;;;;;;;;;;;;5061135;28;1136;-72
2022/05/27 02:49:26;;;;;;;;;;;;;;;;;;5065215;28;1298;-71
2022/05/27 02:51:52;;;;;;;;;;;;;;;;;;5060927;28;1148;-72
2022/05/27 02:54:32;;;;;;;;;;;;;;;;;;5060509;28;1302;-72
2022/05/27 02:57:12;;;;;;;;;;;;;;;;;;5061060;28;1230;-72
2022/05/27 02:59:37;;;;;;;;;;;;;;;;;;5062521;28;1183;-72
2022/05/27 03:02:12;;;;;;;;;;;;;;;;;;5061829;28;1309;-72
2022/05/27 03:04:39;;;;;;;;;;;;;;;;;;5061459;28;1968;-73
2022/05/27 03:07:20;;;;;;;;;;;;;;;;;;5061111;28;1219;-73
2022/05/27 03:09:54;;;;;;;;;;;;;;;;;;5056582;28;1174;-73
2022/05/27 03:12:32;;;;;;;;;;;;;;;;;;5062074;28;1273;-72
2022/05/27 03:15:07;;;;;;;;;;;;;;;;;;5077629;28;1328;-72
2022/05/27 03:17:51;;;;;;;;;;;;;;;;;;5059644;28;1249;-73
2022/05/27 03:20:22;;;;;;;;;;;;;;;;;;5062063;28;1196;-73
2022/05/27 03:22:47;;;;;;;;;;;;;;;;;;5059619;28;1191;-72
2022/05/27 03:25:31;;;;;;;;;;;;;;;;;;5057253;28;1894;-72
2022/05/27 03:28:08;;;;;;;;;;;;;;;;;;5059529;28;1129;-72
2022/05/27 03:30:54;;;;;;;;;;;;;;;;;;5059364;28;1345;-71
2022/05/27 03:33:38;;;;;;;;;;;;;;;;;;5081000;28;1113;-72
2022/05/27 03:36:09;;;;;;;;;;;;;;;;;;5080509;28;1297;-72
2022/05/27 03:38:41;;;;;;;;;;;;;;;;;;5082763;28;1144;-72
2022/05/27 03:41:09;;;;;;;;;;;;;;;;;;5076822;28;1294;-72
2022/05/27 03:43:35;;;;;;;;;;;;;;;;;;5082497;28;1282;-72
2022/05/27 03:46:01;;;;;;;;;;;;;;;;;;5078515;28;1906;-72
2022/05/27 03:48:28;;;;;;;;;;;;;;;;;;5081471;28;1348;-72
2022/05/27 03:51:01;;;;;;;;;;;;;;;;;;5061340;28;1290;-72
2022/05/27 03:54:03;;;;;;;;;;;;;;;;;;5081269;28;1324;-72
2022/05/27 03:56:12;;;;;;;;;;;;;;;;;;5077856;28;1196;-72
2022/05/27 03:58:37;;;;;;;;;;;;;;;;;;5079228;28;1152;-72
2022/05/27 04:01:03;;;;;;;;;;;;;;;;;;5079763;28;1211;-72
2022/05/27 04:03:28;;;;;;;;;;;;;;;;;;5081278;28;1270;-72
2022/05/27 04:05:53;;;;;;;;;;;;;;;;;;5078586;28;1961;-72
2022/05/27 04:08:18;;;;;;;;;;;;;;;;;;5081681;28;1323;-72
2022/05/27 04:10:44;;;;;;;;;;;;;;;;;;5072325;28;1278;-72
2022/05/27 04:13:09;;;;;;;;;;;;;;;;;;5080634;28;1333;-72
2022/05/27 04:15:35;;;;;;;;;;;;;;;;;;5080891;28;1198;-73
2022/05/27 04:18:00;;;;;;;;;;;;;;;;;;5079413;28;1082;-73
2022/05/27 04:20:25;;;;;;;;;;;;;;;;;;5058855;28;1129;-73
2022/05/27 04:22:51;;;;;;;;;;;;;;;;;;5042199;28;1240;-73
2022/05/27 04:25:17;;;;;;;;;;;;;;;;;;5057596;28;1902;-72
2022/05/27 04:27:42;;;;;;;;;;;;;;;;;;5055092;28;1149;-73
2022/05/27 04:30:09;;;;;;;;;;;;;;;;;;5058288;28;1446;-72
2022/05/27 04:32:36;;;;;;;;;;;;;;;;;;5059313;28;1179;-74
2022/05/27 04:35:01;;;;;;;;;;;;;;;;;;5058766;28;1311;-73
2022/05/27 04:37:26;;;;;;;;;;;;;;;;;;5045189;28;1255;-73
2022/05/27 04:39:56;;;;;;;;;;;;;;;;;;5057542;28;1278;-73
2022/05/27 04:42:21;;;;;;;;;;;;;;;;;;5060508;28;1309;-73
2022/05/27 04:44:46;;;;;;;;;;;;;;;;;;5073839;28;1976;-73
2022/05/27 04:47:12;;;;;;;;;;;;;;;;;;5062114;28;1174;-73
2022/05/27 04:49:56;;;;;;;;;;;;;;;;;;5059606;28;1298;-74
2022/05/27 04:52:21;;;;;;;;;;;;;;;;;;5082797;28;1064;-73
2022/05/27 04:54:47;;;;;;;;;;;;;;;;;;5081893;28;1076;-74
2022/05/27 04:57:15;;;;;;;;;;;;;;;;;;5079369;28;1116;-73
2022/05/27 04:59:40;;;;;;;;;;;;;;;;;;5078738;28;1163;-73
2022/05/27 05:02:06;;;;;;;;;;;;;;;;;;5060379;28;1149;-73
2022/05/27 05:04:31;;;;;;;;;;;;;;;;;;5078242;28;1950;-72
2022/05/27 05:07:06;;;;;;;;;;;;;;;;;;5081184;28;1167;-73
2022/05/27 05:09:32;;;;;;;;;;;;;;;;;;5077385;28;1293;-74
2022/05/27 05:11:57;;;;;;;;;;;;;;;;;;5054853;28;924;-73
2022/05/27 05:14:22;;;;;;;;;;;;;;;;;;5044608;28;1211;-77
2022/05/27 05:16:47;;;;;;;;;;;;;;;;;;5059517;28;1270;-79
2022/05/27 05:19:13;;;;;;;;;;;;;;;;;;5065017;28;1267;-73
2022/05/27 05:21:38;;;;;;;;;;;;;;;;;;5080879;28;1138;-73
2022/05/27 05:24:03;;;;;;;;;;;;;;;;;;5063752;28;1174;-73
2022/05/27 05:26:28;;;;;;;;;;;;;;;;;;5081765;28;1894;-73
2022/05/27 05:28:54;;;;;;;;;;;;;;;;;;5065579;28;1137;-73
2022/05/27 05:31:19;;;;;;;;;;;;;;;;;;5063624;28;743;-73
2022/05/27 05:33:45;;;;;;;;;;;;;;;;;;5063944;28;1223;-74
2022/05/27 05:36:10;;;;;;;;;;;;;;;;;;5062685;28;1494;-73
2022/05/27 05:38:36;;;;;;;;;;;;;;;;;;5064569;28;1282;-73
2022/05/27 05:41:01;;;;;;;;;;;;;;;;;;5057457;28;1251;-73
2022/05/27 05:43:26;;;;;;;;;;;;;;;;;;5061761;28;1278;-73
2022/05/27 05:45:52;;;;;;;;;;;;;;;;;;5060286;28;1969;-73
2022/05/27 05:48:17;;;;;;;;;;;;;;;;;;5047831;28;1330;-73
2022/05/27 05:50:43;;;;;;;;;;;;;;;;;;5062052;28;1244;-73
2022/05/27 05:53:09;;;;;;;;;;;;;;;;;;5062701;28;1288;-73
2022/05/27 05:55:35;;;;;;;;;;;;;;;;;;5061869;28;1208;-73
2022/05/27 05:58:01;;;;;;;;;;;;;;;;;;5060820;28;1156;-73
2022/05/27 06:00:26;;;;;;;;;;;;;;;;;;5080454;28;1273;-73
2022/05/27 06:02:53;;;;;;;;;;;;;;;;;;5062130;28;1246;-73
2022/05/27 06:05:18;;;;;;;;;;;;;;;;;;5064398;28;1977;-73
2022/05/27 06:07:48;;;;;;;;;;;;;;;;;;5066096;28;860;-73
2022/05/27 06:10:15;;;;;;;;;;;;;;;;;;5061638;28;1223;-73
2022/05/27 06:12:41;;;;;;;;;;;;;;;;;;5062337;28;1224;-73
2022/05/27 06:15:08;;;;;;;;;;;;;;;;;;5063196;28;1027;-73
2022/05/27 06:17:33;;;;;;;;;;;;;;;;;;5062351;28;1251;-73
2022/05/27 06:19:58;;;;;;;;;;;;;;;;;;5064531;28;852;-73
2022/05/27 06:22:24;;;;;;;;;;;;;;;;;;5065763;28;1052;-73
2022/05/27 06:24:50;;;;;;;;;;;;;;;;;;5046457;28;1902;-73
2022/05/27 06:27:15;;;;;;;;;;;;;;;;;;5058942;28;1185;-73
2022/05/27 06:35:08;;;;;;;;;;;;;;;;;;5066734;28;1029;-73
2022/05/27 06:37:34;;;;;;;;;;;;;;;;;;5085721;28;1196;-73
2022/05/27 06:39:59;;;;;;;;;;;;;;;;;;5086018;28;1092;-73
2022/05/27 06:42:24;;;;;;;;;;;;;;;;;;5084787;28;1337;-72
2022/05/27 06:44:50;;;;;;;;;;;;;;;;;;5083516;28;1975;-74
2022/05/27 06:47:15;;;;;;;;;;;;;;;;;;5086855;28;1208;-73
2022/05/27 06:49:44;;;;;;;;;;;;;;;;;;5087056;28;1309;-73
2022/05/27 06:52:10;;;;;;;;;;;;;;;;;;5084277;28;1155;-73
2022/05/27 06:54:35;;;;;;;;;;;;;;;;;;5085124;28;1165;-72
2022/05/27 06:57:01;;;;;;;;;;;;;;;;;;5079383;28;1193;-74
2022/05/27 06:59:26;;;;;;;;;;;;;;;;;;5047221;28;1183;-73
2022/05/27 07:01:54;;;;;;;;;;;;;;;;;;5045564;28;1291;-74
2022/05/27 07:04:19;;;;;;;;;;;;;;;;;;5062633;28;1085;-73
2022/05/27 07:06:45;;;;;;;;;;;;;;;;;;5063641;28;1898;-73
2022/05/27 07:09:12;;;;;;;;;;;;;;;;;;5073247;28;1242;-74
2022/05/27 07:11:38;;;;;;;;;;;;;;;;;;5079343;28;1273;-73
2022/05/27 07:14:04;;;;;;;;;;;;;;;;;;5078718;28;1079;-73
2022/05/27 07:16:29;;;;;;;;;;;;;;;;;;5080283;28;1095;-73
2022/05/27 07:18:54;;;;;;;;;;;;;;;;;;5081696;28;1355;-74
2022/05/27 07:21:20;;;;;;;;;;;;;;;;;;5082602;28;1044;-73
2022/05/27 07:23:45;;;;;;;;;;;;;;;;;;5083648;28;1292;-73
2022/05/27 07:26:11;;;;;;;;;;;;;;;;;;5061865;28;1890;-74
2022/05/27 07:28:36;;;;;;;;;;;;;;;;;;5081614;28;1147;-74
2022/05/27 07:31:02;;;;;;;;;;;;;;;;;;5080652;28;1141;-78
2022/05/27 07:33:27;;;;;;;;;;;;;;;;;;5082312;28;1296;-80
2022/05/27 07:35:57;;;;;;;;;;;;;;;;;;5063968;28;1236;-80
2022/05/27 07:38:22;;;;;;;;;;;;;;;;;;5082762;28;1372;-79
2022/05/27 07:40:48;;;;;;;;;;;;;;;;;;5080425;28;1259;-80
2022/05/27 07:43:14;;;;;;;;;;;;;;;;;;5074199;28;1339;-81
2022/05/27 07:45:41;;;;;;;;;;;;;;;;;;5083371;28;1914;-79
2022/05/27 07:48:07;;;;;;;;;;;;;;;;;;5072609;28;1260;-80
2022/05/27 07:50:32;;;;;;;;;;;;;;;;;;5069039;28;1435;-80
2022/05/27 07:52:58;;;;;;;;;;;;;;;;;;5069308;28;1364;-80
2022/05/27 07:55:24;;;;;;;;;;;;;;;;;;5074537;28;1266;-80
2022/05/27 07:57:49;;;;;;;;;;;;;;;;;;5057278;28;1278;-80
2022/05/27 08:00:16;;;;;;;;;;;;;;;;;;5062005;28;1224;-81
2022/05/27 08:02:42;;;;;;;;;;;;;;;;;;5081815;28;1193;-80
2022/05/27 08:05:09;;;;;;;;;;;;;;;;;;5055643;28;1945;-76
2022/05/27 08:07:34;;;;;;;;;;;;;;;;;;5058917;28;1252;-75
2022/05/27 08:10:00;;;;;;;;;;;;;;;;;;5059881;28;1159;-74
2022/05/27 08:12:27;;;;;;;;;;;;;;;;;;5062959;28;1118;-74
2022/05/27 08:14:52;;;;;;;;;;;;;;;;;;5041645;28;1252;-74
2022/05/27 08:17:17;;;;;;;;;;;;;;;;;;5059225;28;996;-74
2022/05/27 08:19:43;;;;;;;;;;;;;;;;;;5045996;28;1152;-73
2022/05/27 08:22:08;;;;;;;;;;;;;;;;;;5057596;28;988;-73
2022/05/27 08:24:33;;;;;;;;;;;;;;;;;;5061665;28;1960;-73
2022/05/27 08:26:59;;;;;;;;;;;;;;;;;;5058869;28;757;-73
2022/05/27 08:29:25;;;;;;;;;;;;;;;;;;5038939;28;1063;-72
2022/05/27 08:31:50;;;;;;;;;;;;;;;;;;5059583;28;1230;-72
2022/05/27 08:39:47;;;;;;;;;;;;;;;;;;5084303;28;1163;-74
2022/05/27 08:42:19;;;;;;;;;;;;;;;;;;5075354;28;1199;-74
2022/05/27 08:44:47;;;;;;;;;;;;;;;;;;5066222;28;1955;-74
2022/05/27 08:47:18;;;;;;;;;;;;;;;;;;5058729;28;1338;-72
2022/05/27 08:49:46;;;;;;;;;;;;;;;;;;5064390;28;1310;-74
2022/05/27 08:52:12;;;;;;;;;;;;;;;;;;5061363;28;946;-74
2022/05/27 08:54:44;;;;;;;;;;;;;;;;;;5065014;28;805;-74
2022/05/27 08:59:54;;;;;;;;;;;;;;;;;;5064056;28;672;-74
2022/05/27 09:02:36;;;;;;;;;;;;;;;;;;5062816;28;1004;-74
2022/05/27 09:05:18;;;;;;;;;;;;;;;;;;5063532;28;2235;-74
2022/05/27 09:07:56;;;;;;;;;;;;;;;;;;5059382;28;1127;-72
2022/05/27 09:10:23;;;;;;;;;;;;;;;;;;5061465;28;1271;-73
2022/05/27 09:12:54;;;;;;;;;;;;;;;;;;5060647;28;1195;-73
2022/05/27 09:15:33;;;;;;;;;;;;;;;;;;5060915;28;1133;-73
2022/05/27 09:18:16;;;;;;;;;;;;;;;;;;5063173;28;1200;-73
2022/05/27 09:20:48;;;;;;;;;;;;;;;;;;5059546;28;1358;-73
2022/05/27 09:23:16;;;;;;;;;;;;;;;;;;5063069;28;1180;-73
2022/05/27 09:25:48;;;;;;;;;;;;;;;;;;5062766;28;1902;-75
2022/05/27 09:28:22;;;;;;;;;;;;;;;;;;5058580;28;1267;-75
2022/05/27 09:30:48;;;;;;;;;;;;;;;;;;5065441;28;1278;-74
2022/05/27 09:33:16;;;;;;;;;;;;;;;;;;5061494;28;1153;-74
2022/05/27 09:35:41;;;;;;;;;;;;;;;;;;5067327;28;1160;-76
2022/05/27 09:38:07;;;;;;;;;;;;;;;;;;5060477;28;1375;-73
2022/05/27 09:40:46;;;;;;;;;;;;;;;;;;5062702;28;1161;-74
2022/05/27 09:43:33;;;;;;;;;;;;;;;;;;5068392;28;1215;-74
2022/05/27 09:46:00;;;;;;;;;;;;;;;;;;5079041;28;1910;-74
2022/05/27 09:48:26;;;;;;;;;;;;;;;;;;5075532;28;1116;-72
2022/05/27 09:50:51;;;;;;;;;;;;;;;;;;5080915;28;1328;-73
2022/05/27 09:53:22;;;;;;;;;;;;;;;;;;5079803;28;1397;-72
2022/05/27 09:55:47;;;;;;;;;;;;;;;;;;5076684;28;1290;-72
2022/05/27 09:58:12;;;;;;;;;;;;;;;;;;5077537;28;1175;-73
2022/05/27 10:00:46;;;;;;;;;;;;;;;;;;5082263;28;1313;-72
2022/05/27 10:03:30;;;;;;;;;;;;;;;;;;5078662;28;1168;-72
2022/05/27 10:05:58;;;;;;;;;;;;;;;;;;5080683;28;1885;-72
2022/05/27 10:08:38;;;;;;;;;;;;;;;;;;5075618;28;1348;-72
2022/05/27 10:11:06;;;;;;;;;;;;;;;;;;5060545;28;1259;-72
2022/05/27 10:13:34;;;;;;;;;;;;;;;;;;5053567;28;1200;-72
2022/05/27 10:16:03;;;;;;;;;;;;;;;;;;5044762;28;1196;-72
2022/05/27 10:18:29;;;;;;;;;;;;;;;;;;5039889;28;1207;-73
2022/05/27 10:21:03;;;;;;;;;;;;;;;;;;5042600;28;1196;-73
2022/05/27 10:23:29;;;;;;;;;;;;;;;;;;5058788;28;1279;-74
2022/05/27 10:25:55;;;;;;;;;;;;;;;;;;5071267;28;1898;-73
2022/05/27 10:28:29;;;;;;;;;;;;;;;;;;5075609;28;1206;-74
2022/05/27 10:31:02;;;;;;;;;;;;;;;;;;5083586;28;1340;-73
2022/05/27 10:33:42;;;;;;;;;;;;;;;;;;5078651;28;1291;-73
2022/05/27 10:36:25;;;;;;;;;;;;;;;;;;5084388;28;1195;-73
2022/05/27 10:39:12;;;;;;;;;;;;;;;;;;5078183;28;1407;-73
2022/05/27 10:44:36;;;;;;;;;;;;;;;;;;5037819;27;2895861;-72
2022/05/27 10:47:02;;;;;;;;;;;;;;;;;;5119209;27;1301;-73
2022/05/27 10:49:28;;;;;;;;;;;;;;;;;;5099337;27;1140;-73
2022/05/27 10:52:12;;;;;;;;;;;;;;;;;;5118642;27;1206;-73
2022/05/27 10:54:47;;;;;;;;;;;;;;;;;;5119628;27;1283;-73
2022/05/27 11:02:56;;;;;;;;;;;;;;;;;;5138077;27;1975;-72
2022/05/27 11:05:45;;;;;;;;;;;;;;;;;;5133277;27;1156;-72
2022/05/27 11:08:23;;;;;;;;;;;;;;;;;;5084429;27;1290;-73
2022/05/27 11:11:00;;;;;;;;;;;;;;;;;;5118488;27;1152;-73
2022/05/27 11:16:41;;;;;;;;;;;;;;;;;;5138422;27;616;-73
2022/05/27 11:19:09;;;;;;;;;;;;;;;;;;5121841;27;1190;-72
2022/05/27 11:21:53;;;;;;;;;;;;;;;;;;5117566;27;1273;-72
2022/05/27 11:24:37;;;;;;;;;;;;;;;;;;5119568;27;1878;-73
2022/05/27 11:27:12;;;;;;;;;;;;;;;;;;5120624;27;1442;-73
2022/05/27 11:29:51;;;;;;;;;;;;;;;;;;5133797;27;809;-73
2022/05/27 11:32:35;;;;;;;;;;;;;;;;;;5119192;27;1312;-75
2022/05/27 11:35:07;;;;;;;;;;;;;;;;;;5124315;27;1352;-74
2022/05/27 11:37:51;;;;;;;;;;;;;;;;;;5120091;27;1485;-74
2022/05/27 11:40:19;;;;;;;;;;;;;;;;;;5138578;27;1139;-74
2022/05/27 11:42:56;;;;;;;;;;;;;;;;;;5104933;28;1889;-75
2022/05/27 11:45:26;;;;;;;;;;;;;;;;;;5100825;27;1278;-74
2022/05/27 11:48:02;;;;;;;;;;;;;;;;;;5098974;27;1279;-74
2022/05/27 11:50:43;;;;;;;;;;;;;;;;;;5119290;27;994;-75
2022/05/27 11:53:27;;;;;;;;;;;;;;;;;;5122800;27;1220;-74
2022/05/27 11:55:59;;;;;;;;;;;;;;;;;;5105843;27;1286;-74
2022/05/27 11:58:29;;;;;;;;;;;;;;;;;;5123911;27;859;-74
2022/05/27 12:00:59;;;;;;;;;;;;;;;;;;5108243;27;1282;-74
2022/05/27 12:03:24;;;;;;;;;;;;;;;;;;5104994;27;1902;-74
2022/05/27 12:05:55;;;;;;;;;;;;;;;;;;5106442;27;1332;-75
2022/05/27 12:08:27;;;;;;;;;;;;;;;;;;5124066;27;757;-75
2022/05/27 12:11:01;;;;;;;;;;;;;;;;;;5105721;27;1206;-74
2022/05/27 12:13:44;;;;;;;;;;;;;;;;;;5112427;27;1152;-73
2022/05/27 12:16:15;;;;;;;;;;;;;;;;;;5086962;28;1164;-74
2022/05/27 12:18:46;;;;;;;;;;;;;;;;;;5084849;28;1297;-74
2022/05/27 12:21:13;;;;;;;;;;;;;;;;;;5087211;28;1259;-73
2022/05/27 12:23:42;;;;;;;;;;;;;;;;;;5086700;27;1952;-73
2022/05/27 12:26:08;;;;;;;;;;;;;;;;;;5096046;28;1236;-75
2022/05/27 12:28:36;;;;;;;;;;;;;;;;;;5087329;27;1270;-74
2022/05/27 12:31:02;;;;;;;;;;;;;;;;;;5125552;27;1227;-74
2022/05/27 12:33:29;;;;;;;;;;;;;;;;;;5104002;27;1168;-74
2022/05/27 12:35:59;;;;;;;;;;;;;;;;;;5107720;27;1210;-75
2022/05/27 12:38:26;;;;;;;;;;;;;;;;;;5121500;27;1155;-75
2022/05/27 12:40:58;;;;;;;;;;;;;;;;;;5103775;28;1129;-74
2022/05/27 12:43:29;;;;;;;;;;;;;;;;;;5081304;28;1949;-75
2022/05/27 12:46:13;;;;;;;;;;;;;;;;;;5085644;28;1437;-75
2022/05/27 12:48:39;;;;;;;;;;;;;;;;;;5095845;27;1330;-75
2022/05/27 12:51:06;;;;;;;;;;;;;;;;;;5126073;27;1211;-75
2022/05/27 12:53:42;;;;;;;;;;;;;;;;;;5101278;27;1194;-75
2022/05/27 13:02:22;;;;;;;;;;;;;;;;;;5085661;28;1902;-73
2022/05/27 13:04:55;;;;;;;;;;;;;;;;;;5064021;28;1215;-74
2022/05/27 13:07:22;;;;;;;;;;;;;;;;;;5066510;28;1152;-74
2022/05/27 13:10:14;;;;;;;;;;;;;;;;;;5065285;28;1243;-73
2022/05/27 13:12:48;;;;;;;;;;;;;;;;;;5057331;28;1085;-74
2022/05/27 13:15:34;;;;;;;;;;;;;;;;;;5083290;28;805;-74
2022/05/27 13:18:08;;;;;;;;;;;;;;;;;;5062522;28;1231;-73
2022/05/27 13:20:52;;;;;;;;;;;;;;;;;;5082380;28;1350;-74
2022/05/27 13:23:18;;;;;;;;;;;;;;;;;;5084641;28;1898;-74
2022/05/27 13:25:49;;;;;;;;;;;;;;;;;;5099528;28;1199;-75
2022/05/27 13:28:33;;;;;;;;;;;;;;;;;;5099522;28;1052;-74
2022/05/27 13:31:02;;;;;;;;;;;;;;;;;;5085904;28;1223;-75
2022/05/27 13:33:45;;;;;;;;;;;;;;;;;;5104217;28;1140;-74
2022/05/27 13:36:16;;;;;;;;;;;;;;;;;;5087069;28;1208;-74
2022/05/27 13:38:43;;;;;;;;;;;;;;;;;;5103330;28;1033;-74
2022/05/27 13:41:10;;;;;;;;;;;;;;;;;;5104016;27;1140;-74
2022/05/27 13:43:39;;;;;;;;;;;;;;;;;;5101594;27;1881;-75
2022/05/27 13:46:14;;;;;;;;;;;;;;;;;;5085073;28;1341;-74
2022/05/27 13:48:43;;;;;;;;;;;;;;;;;;5085398;28;1250;-75
2022/05/27 13:51:16;;;;;;;;;;;;;;;;;;5086787;28;1137;-74
2022/05/27 13:53:42;;;;;;;;;;;;;;;;;;5101978;27;1207;-74
2022/05/27 13:56:18;;;;;;;;;;;;;;;;;;5103682;27;1316;-75
2022/05/27 13:58:52;;;;;;;;;;;;;;;;;;5103249;27;1246;-75
2022/05/27 14:01:20;;;;;;;;;;;;;;;;;;5127012;27;876;-74
2022/05/27 14:03:49;;;;;;;;;;;;;;;;;;5108320;27;1905;-74
2022/05/27 14:06:25;;;;;;;;;;;;;;;;;;5109657;27;1171;-73
2022/05/27 14:08:51;;;;;;;;;;;;;;;;;;5104953;27;1270;-73
2022/05/27 14:11:35;;;;;;;;;;;;;;;;;;5104573;27;1304;-73
2022/05/27 14:14:01;;;;;;;;;;;;;;;;;;5122563;27;1112;-73
2022/05/27 14:16:31;;;;;;;;;;;;;;;;;;5100233;27;1239;-74
2022/05/27 14:19:06;;;;;;;;;;;;;;;;;;5087344;28;1049;-74
2022/05/27 14:24:27;;;;;;;;;;;;;;;;;;5094746;27;1897;-76
2022/05/27 14:26:52;;;;;;;;;;;;;;;;;;5098052;28;1148;-76
2022/05/27 14:29:20;;;;;;;;;;;;;;;;;;5061874;28;1211;-76
2022/05/27 14:31:46;;;;;;;;;;;;;;;;;;5063428;28;1194;-76
2022/05/27 14:34:13;;;;;;;;;;;;;;;;;;5066086;28;1313;-75
2022/05/27 14:36:44;;;;;;;;;;;;;;;;;;5063941;28;1191;-76
2022/05/27 14:39:09;;;;;;;;;;;;;;;;;;5065951;28;1156;-76
2022/05/27 14:41:37;;;;;;;;;;;;;;;;;;5044954;28;1155;-75
2022/05/27 14:44:03;;;;;;;;;;;;;;;;;;5064287;28;1893;-74
2022/05/27 14:46:33;;;;;;;;;;;;;;;;;;5068389;28;865;-77
2022/05/27 14:49:00;;;;;;;;;;;;;;;;;;5066618;28;1381;-76
2022/05/27 14:51:42;;;;;;;;;;;;;;;;;;5089244;28;1261;-73
2022/05/27 14:54:07;;;;;;;;;;;;;;;;;;5076877;28;1079;-75
2022/05/27 14:56:34;;;;;;;;;;;;;;;;;;5080704;28;1174;-75
2022/05/27 14:59:06;;;;;;;;;;;;;;;;;;5084458;28;1287;-75
2022/05/27 15:01:41;;;;;;;;;;;;;;;;;;5107139;28;1133;-74
2022/05/27 15:04:13;;;;;;;;;;;;;;;;;;5108794;28;1902;-76
2022/05/27 15:06:40;;;;;;;;;;;;;;;;;;5084267;28;954;-74
2022/05/27 15:09:14;;;;;;;;;;;;;;;;;;5078205;28;1167;-75
2022/05/27 15:11:39;;;;;;;;;;;;;;;;;;5082068;28;1052;-75
2022/05/27 15:14:25;;;;;;;;;;;;;;;;;;5098758;28;870;-75
2022/05/27 15:16:58;;;;;;;;;;;;;;;;;;5078913;28;1281;-75
2022/05/27 15:19:24;;;;;;;;;;;;;;;;;;5083369;28;1234;-75
2022/05/27 15:21:54;;;;;;;;;;;;;;;;;;5079199;28;1465;-76
2022/05/27 15:24:42;;;;;;;;;;;;;;;;;;5081498;28;1897;-75
2022/05/27 15:33:18;;;;;;;;;;;;;;;;;;5107716;28;1195;-75
2022/05/27 15:35:44;;;;;;;;;;;;;;;;;;5094753;27;1260;-75
2022/05/27 15:38:15;;;;;;;;;;;;;;;;;;5086095;27;1233;-75
2022/05/27 15:40:42;;;;;;;;;;;;;;;;;;5050321;28;1142;-74
2022/05/27 15:43:12;;;;;;;;;;;;;;;;;;5071963;28;1960;-73
2022/05/27 15:45:40;;;;;;;;;;;;;;;;;;5099899;28;1301;-72
2022/05/27 15:48:06;;;;;;;;;;;;;;;;;;5102522;28;1172;-73
2022/05/27 15:50:31;;;;;;;;;;;;;;;;;;5081631;28;1273;-73
2022/05/27 15:52:56;;;;;;;;;;;;;;;;;;5096625;28;1262;-73
2022/05/27 15:55:22;;;;;;;;;;;;;;;;;;5085079;28;1200;-74
2022/05/27 15:57:50;;;;;;;;;;;;;;;;;;5088107;28;1222;-74
2022/05/27 16:00:15;;;;;;;;;;;;;;;;;;5098004;28;1265;-74
2022/05/27 16:02:45;;;;;;;;;;;;;;;;;;5077411;28;1969;-74
2022/05/27 16:05:10;;;;;;;;;;;;;;;;;;5066010;28;1330;-74
2022/05/27 16:07:35;;;;;;;;;;;;;;;;;;5090612;28;1148;-74
2022/05/27 16:10:01;;;;;;;;;;;;;;;;;;5082683;28;1265;-75
2022/05/27 16:12:27;;;;;;;;;;;;;;;;;;5086780;28;1306;-75
2022/05/27 16:14:53;;;;;;;;;;;;;;;;;;5037128;28;1123;-74
2022/05/27 16:20:03;;;;;;;;;;;;;;;;;;5084467;28;1008;-74
2022/05/27 16:22:28;;;;;;;;;;;;;;;;;;5074692;28;1898;-74
2022/05/27 16:24:58;;;;;;;;;;;;;;;;;;5049834;28;1225;-74
2022/05/27 16:27:23;;;;;;;;;;;;;;;;;;5049639;28;1190;-75
2022/05/27 16:29:58;;;;;;;;;;;;;;;;;;5082153;28;1235;-75
2022/05/27 16:32:24;;;;;;;;;;;;;;;;;;5067532;28;1268;-75
2022/05/27 16:34:58;;;;;;;;;;;;;;;;;;5046870;28;1421;-75
2022/05/27 16:37:23;;;;;;;;;;;;;;;;;;5068503;28;1200;-74
2022/05/27 16:39:59;;;;;;;;;;;;;;;;;;5081260;28;1207;-76
2022/05/27 16:42:24;;;;;;;;;;;;;;;;;;5095273;28;1874;-75
2022/05/27 16:44:52;;;;;;;;;;;;;;;;;;5094381;27;1196;-76
2022/05/27 16:47:18;;;;;;;;;;;;;;;;;;5098683;27;1314;-75
2022/05/27 16:49:45;;;;;;;;;;;;;;;;;;5106209;27;1183;-76
2022/05/27 16:52:11;;;;;;;;;;;;;;;;;;5084765;27;1132;-77
2022/05/27 16:54:37;;;;;;;;;;;;;;;;;;5082672;27;1305;-76
2022/05/27 16:57:02;;;;;;;;;;;;;;;;;;5055360;28;1184;-76
2022/05/27 16:59:28;;;;;;;;;;;;;;;;;;5087768;27;1159;-77
2022/05/27 17:01:53;;;;;;;;;;;;;;;;;;5081512;28;1144;-76
2022/05/27 17:04:18;;;;;;;;;;;;;;;;;;5070826;27;1906;-76
2022/05/27 17:06:44;;;;;;;;;;;;;;;;;;5076724;28;1340;-75
2022/05/27 17:09:10;;;;;;;;;;;;;;;;;;5061167;28;1153;-76
2022/05/27 17:11:35;;;;;;;;;;;;;;;;;;5089571;27;1152;-75
2022/05/27 17:14:01;;;;;;;;;;;;;;;;;;5079158;27;1185;-75
2022/05/27 17:16:26;;;;;;;;;;;;;;;;;;5082026;28;1231;-76
2022/05/27 17:18:52;;;;;;;;;;;;;;;;;;5066537;27;1318;-76
2022/05/27 17:21:17;;;;;;;;;;;;;;;;;;5069799;27;1228;-76
2022/05/27 17:23:43;;;;;;;;;;;;;;;;;;5100182;27;1893;-76
2022/05/27 17:26:09;;;;;;;;;;;;;;;;;;5073136;28;1220;-76
2022/05/27 17:28:34;;;;;;;;;;;;;;;;;;5111613;27;1172;-76
2022/05/27 17:30:59;;;;;;;;;;;;;;;;;;5074714;27;1255;-76
2022/05/27 17:33:24;;;;;;;;;;;;;;;;;;5099472;27;1164;-76
2022/05/27 17:35:50;;;;;;;;;;;;;;;;;;5073778;27;1156;-77
2022/05/27 17:38:16;;;;;;;;;;;;;;;;;;5058330;28;1515;-76
2022/05/27 17:40:42;;;;;;;;;;;;;;;;;;5083198;27;1171;-77
2022/05/27 17:43:07;;;;;;;;;;;;;;;;;;5080761;28;1933;-76
2022/05/27 17:45:33;;;;;;;;;;;;;;;;;;5104404;27;1172;-75
2022/05/27 17:53:26;;;;;;;;;;;;;;;;;;5102193;27;1104;-77
2022/05/27 17:55:57;;;;;;;;;;;;;;;;;;5069365;27;1141;-78
2022/05/27 17:58:23;;;;;;;;;;;;;;;;;;5124421;27;1100;-77
2022/05/27 18:00:56;;;;;;;;;;;;;;;;;;5068817;28;1240;-76
2022/05/27 18:03:21;;;;;;;;;;;;;;;;;;5099403;27;1965;-77
2022/05/27 18:05:46;;;;;;;;;;;;;;;;;;5106380;27;1211;-77
2022/05/27 18:08:13;;;;;;;;;;;;;;;;;;5098439;28;1325;-77
2022/05/27 18:10:39;;;;;;;;;;;;;;;;;;5115841;27;1125;-76
2022/05/27 18:13:04;;;;;;;;;;;;;;;;;;5089930;28;1235;-76